Gettysburg, SD

01:04 CDT le 21 septembre 2014 (GMT -0500)
Chamberlain | Change Station
CLOSE
Current Station
Aéroport
Location: Chamberlain,
Altitude: 1693 ft
Stations météo à proximité

Alt. 1693 ft 43.77 °N, 99.32 °W | Updated 9 minutes ago

Ciel dégagé
Ciel dégagé
54 ° F
Paraît 54 ° F
N
7
Vent Variable Vent de ONO

Aujourd'hui
Haut(e) -- | Bas -- ° F
--% Risque de précip.
Hier
Haut(e) -- | Bas -- ° F
Precip. -- pouce
7:25 AM 7:39 PM
Lune descendante, 8% visible
Pression 30.15 pouce
Visibilité 10.0 Miles terrestres
Nuages Ciel dégagé
Point de rosée 41 ° F
Humidité 62%
Précipitations 0.00 pouce
Profondeur de la couche neigeuse Non disponible.
UV 0 sur 12
Pollen 6.30 sur 12
Qualité de l'air Non disponible.
Flu Activity Non disponible.
METAR K9V9 210555Z AUTO 30006KT 10SM CLR 12/05 A3015 RMK AO2 T01200049 10230 20107 402800107

More Conditions Fewer Conditions

Pression 30.15 pouce
Visibilité 10.0 Miles terrestres
Nuages Ciel dégagé
Point de rosée 41 ° F
Humidité 62%
Précipitations 0.00 pouce
Profondeur de la couche neigeuse Non disponible.
UV 0 sur 12
Pollen 6.30 sur 12
Qualité de l'air Non disponible.
Flu Activity Non disponible.
METAR K9V9 210555Z AUTO 30006KT 10SM CLR 12/05 A3015 RMK AO2 T01200049 10230 20107 402800107

More Conditions Fewer Conditions

10-Day Weather Forecast

Almanac

Astronomie

Sep. 21, 2014 Lever Coucher
Temps réel 07:25 CDT 19:39 CDT
Crépuscule civil 06:56 CDT 20:08 CDT
Crépuscule nautique 06:22 CDT 20:42 CDT
Crépuscule astronomique 05:46 CDT 21:18 CDT
Lune 04:56 CDT 18:20 CDT
Durée de lumière visible 13h 12m
Longueur du jour
12h 13m
Tomorrow will be 3m 7s shorter.
Lune descendante, 8% of the Moon is Illuminated
Aujourd'hui
Lune descendante
Sep 24
Nouveau
Oct 1
Premier quartier
Oct 8
Pleine lune
Oct 15
Dernier quartier

Extrêmes aujourd'hui

State Highs State Lows

Community

WunderPhotos

Upload Photos

1,755,098 Photos téléchargées !

Nearby

Épaisseur de neige

Station Depth Altitude
Blind Park 0 in 6890 ft

Activité sismique

Ville Distance Mag. Time & Date
No recent earthquake activity has been reported nearby.
Minimum magnitude displayed is 2.5.

Températures des eaux côtières

Lieu Température
Aucun rapport de station

Stations météo à proximité